• Join FlightAware (Why Join?)
  • Login
  • US Flag GB Flag 
16:00 EDT


 

Airport Tracker/Info


-or-


 

Live Flight TrackerFlight Track Log ✈ AAL1870 ✈ 18-Apr-2013 ✈ KLAX - KORD

Flight Track Log - Related Links

Times and Time Zones

All times are in EDT time to prevent confusion due to time zone crossing. See the AAL1870 flight status page for this flight to view local times or setup timezone preferences in your user account.

Time Position Orientation Groundspeed Altitude Reporting Facility
EDT Latitude Longitude Course Direction KTS MPH feet Rate Location/Type
23:28 33.9328 -118.4475 90° East 176 203 1,500  Level Los Angeles Center
23:29 33.8914 -118.5133 233° Southwest 230 265 2,700 1,800 Climbing Los Angeles Center
23:30 33.7420 -118.5900 134° Southeast  Level FlightAware Approximate
23:30 33.8197 -118.5436 199° South 272 313 5,200  Level Los Angeles Center
23:31 33.6733 -118.4564 101° East  Level FlightAware Approximate
23:31 33.7444 -118.5292 171° South 277 319 7,500  Level Los Angeles Center
23:32 33.6333 -118.3052 90° East  Level FlightAware Approximate
23:32 33.6822 -118.4817 148° Southeast 289 333 9,500  Level Los Angeles Center
23:33 33.6333 -118.1421 90° East  Level FlightAware Approximate
23:33 33.6564 -118.3850 108° East 305 351 11,000  Level Los Angeles Center
23:34 33.6431 -118.2514 97° East 346 398 13,800 2,400 Climbing Los Angeles Center
23:36 33.6442 -118.0069 90° East 376 433 18,600 1,740 Climbing Los Angeles Center
23:37 33.6439 -117.8775 90° East 389 448 19,200 1,140 Climbing Los Angeles Center
23:38 33.6439 -117.7361 90° East 421 484 21,000 1,740 Climbing Los Angeles Center
23:39 33.6431 -117.5908 90° East 436 502 22,800 1,740 Climbing Los Angeles Center
23:40 33.6419 -117.4100 90° East 453 521 24,700 1,500 Climbing Los Angeles Center
23:41 33.6403 -117.2547 91° East 465 535 25,900 1,620 Climbing Los Angeles Center
23:42 33.6403 -117.1000 90° East 468 539 28,100 1,500 Climbing Los Angeles Center
23:43 33.6383 -116.9478 91° East 460 529 29,000 840 Climbing Los Angeles Center
23:44 33.6364 -116.7797 91° East 462 532 29,900 900 Climbing Los Angeles Center
23:45 33.6611 -116.6275 79° East 466 536 30,900 960 Climbing Los Angeles Center
23:46 33.7008 -116.4794 72° East 463 533 31,900 960 Climbing Los Angeles Center
23:47 33.7414 -116.3269 72° East 475 547 32,900 1,020 Climbing Los Angeles Center
23:49 33.7817 -116.1744 72° East 476 548 34,100 1,200 Climbing Los Angeles Center
23:50 33.8219 -116.0233 72° East 475 547 35,400 1,080 Climbing Los Angeles Center
23:51 33.8608 -115.8767 72° East 463 533 36,400 720 Climbing Los Angeles Center
23:52 33.8992 -115.7267 73° East 467 537 36,900 240 Climbing Los Angeles Center
23:53 33.9386 -115.5747 73° East 473 544 37,000  Climbing Los Angeles Center
23:54 33.9858 -115.3944 72° East 472 543 36,900  Descending Los Angeles Center
23:55 34.0250 -115.2464 72° East 467 537 37,000  Climbing Los Angeles Center
23:56 34.0631 -115.0958 73° East 468 539 36,900  Descending Los Angeles Center
23:57 34.1008 -114.9481 73° East 463 533 37,000  Climbing Los Angeles Center
23:58 34.1397 -114.7983 73° East 465 535 36,900 -60 Descending Los Angeles Center
23:59 34.1769 -114.6472 73° East 469 540 36,900  Level Los Angeles Center
00:00 34.2236 -114.4650 73° East 473 544 37,000  Climbing Los Angeles Center
00:01 34.2617 -114.3139 73° East 472 543 37,000  Level Los Angeles Center
00:02 34.2997 -114.1606 73° East 476 548 37,000  Level Los Angeles Center
00:03 34.3392 -114.0011 73° East 480 552 37,000  Level Albuquerque Center
00:04 34.3775 -113.8464 73° East 481 554 37,000  Level Albuquerque Center
00:05 34.4139 -113.6936 74° East 478 550 37,000  Level Albuquerque Center
00:06 34.4533 -113.5397 73° East 476 548 37,000  Level Albuquerque Center
00:07 34.4889 -113.3878 74° East 475 547 37,000  Level Albuquerque Center
00:08 34.5319 -113.2031 74° East 476 548 37,000  Level Albuquerque Center
00:09 34.5672 -113.0539 74° East 468 539 37,000  Level Albuquerque Center
00:10 34.6031 -112.9058 74° East 463 533 37,000  Level Albuquerque Center
00:11 34.6361 -112.7606 75° East 457 526 37,000  Level Albuquerque Center
00:12 34.6711 -112.6128 74° East 458 527 37,000  Level Albuquerque Center
00:13 34.7056 -112.4669 74° East 457 526 37,000  Level Albuquerque Center
00:14 34.7389 -112.3186 75° East 455 524 37,000  Level Albuquerque Center
00:15 34.7789 -112.1439 74° East 456 525 37,000  Level Albuquerque Center
00:16 34.8128 -111.9944 75° East 459 528 37,000  Level Albuquerque Center
00:17 34.8469 -111.8428 75° East 466 536 37,000  Level Albuquerque Center
00:18 34.8833 -111.6831 74° East 466 536 37,000  Level Albuquerque Center
00:19 34.9167 -111.5306 75° East 465 535 37,000  Level Albuquerque Center
00:20 34.9497 -111.3800 75° East 461 531 37,000  Level Albuquerque Center
00:21 34.9828 -111.2306 75° East 458 527 37,000  Level Albuquerque Center
00:22 35.0147 -111.0806 75° East 458 527 37,000  Level Albuquerque Center
00:23 35.0486 -110.9322 74° East 455 524 37,000  Level Albuquerque Center
00:24 35.0856 -110.7664 75° East 453 521 37,000  Level Albuquerque Center
00:25 35.1156 -110.6228 76° East 456 525 37,000  Level Albuquerque Center
00:26 35.1514 -110.4583 75° East 451 519 37,000  Level Albuquerque Center
00:27 35.1825 -110.3161 75° East 453 521 37,000  Level Albuquerque Center
00:28 35.2133 -110.1708 75° East 458 527 37,000  Level Albuquerque Center
00:29 35.2483 -110.0014 76° East 461 531 37,000  Level Albuquerque Center
00:31 35.2783 -109.8558 76° East 462 532 37,000  Level Albuquerque Center
00:32 35.3083 -109.7100 76° East 462 532 37,000  Level Albuquerque Center
00:33 35.3431 -109.5383 76° East 465 535 37,000  Level Albuquerque Center
00:34 35.3719 -109.3906 76° East 466 536 37,000  Level Albuquerque Center
00:35 35.4069 -109.2181 76° East 467 537 37,000  Level Albuquerque Center
00:36 35.4378 -109.0708 76° East 468 539 37,000  Level Albuquerque Center
00:37 35.4658 -108.9225 77° East 469 540 37,000  Level Albuquerque Center
00:38 35.5094 -108.7544 72° East 467 537 37,000  Level Albuquerque Center
00:39 35.5478 -108.6108 72° East 466 536 37,000  Level Albuquerque Center
00:40 35.5939 -108.4444 71° East 464 534 37,000  Level Albuquerque Center
00:41 35.6325 -108.3000 72° East 466 536 37,000  Level Albuquerque Center
00:42 35.6703 -108.1550 72° East 467 537 37,000  Level Albuquerque Center
00:43 35.7144 -107.9869 72° East 466 536 37,000  Level Albuquerque Center
00:44 35.7528 -107.8419 72° East 466 536 37,000  Level Albuquerque Center
00:45 35.7908 -107.6958 72° East 468 539 37,000  Level Albuquerque Center
00:46 35.8364 -107.5258 72° East 469 540 37,000  Level Albuquerque Center
00:47 35.8739 -107.3794 72° East 469 540 37,000  Level Albuquerque Center
00:48 35.9114 -107.2344 72° East 467 537 37,000  Level Albuquerque Center
00:49 35.9531 -107.0717 72° East 472 543 37,000  Level Albuquerque Center
00:50 35.9928 -106.9169 72° East 472 543 37,000  Level Albuquerque Center
00:51 36.0328 -106.7617 72° East 473 544 37,000  Level Albuquerque Center
00:52 36.0725 -106.6042 73° East 477 549 37,000  Level Albuquerque Center
00:53 36.1131 -106.4467 72° East 480 552 37,000  Level Albuquerque Center
00:54 36.1522 -106.2864 73° East 484 557 37,000  Level Albuquerque Center
00:55 36.1914 -106.1289 73° East 481 554 37,000  Level Albuquerque Center
00:56 36.2311 -105.9689 73° East 484 557 37,000  Level Albuquerque Center
00:57 36.2689 -105.8092 74° East 483 556 37,000  Level Albuquerque Center
00:58 36.3072 -105.6517 73° East 480 552 37,000  Level Albuquerque Center
00:59 36.3469 -105.4822 74° East 482 555 37,000  Level Albuquerque Center
01:00 36.3853 -105.3219 73° East 481 554 37,000  Level Albuquerque Center
01:01 36.4239 -105.1594 74° East 484 557 37,000  Level Albuquerque Center
01:02 36.4608 -104.9989 74° East 481 554 37,000  Level Albuquerque Center
01:03 36.5014 -104.8394 72° East 480 552 37,000  Level Albuquerque Center
01:04 36.5578 -104.6928 64° Northeast 468 539 37,000  Level Albuquerque Center
01:05 36.6119 -104.5419 66° East 470 541 37,000  Level Albuquerque Center
01:06 36.6664 -104.3914 66° East 472 543 37,000  Level Albuquerque Center
01:07 36.7306 -104.2158 65° Northeast 473 544 37,000  Level Albuquerque Center
01:08 36.7819 -104.0733 66° East 473 544 37,000  Level Albuquerque Center
01:10 36.8349 -103.8955 67° East  Level FlightAware Approximate
01:11 36.9469 -103.6144 67° East 481 554 37,000  Level Albuquerque Center
01:12 36.9978 -103.4694 66° East 479 551 37,000  Level Albuquerque Center
01:13 37.0572 -103.3000 66° East 478 550 37,000  Level Albuquerque Center
01:14 37.1064 -103.1572 67° East 472 543 37,000  Level Albuquerque Center
01:15 37.1561 -103.0133 67° East 471 542 37,000  Level Albuquerque Center
01:16 37.2158 -102.8439 66° East 475 547 37,000  Level Albuquerque Center
01:17 37.2653 -102.7003 67° East 473 544 37,000  Level Albuquerque Center
01:18 37.3150 -102.5558 67° East 472 543 37,000  Level Albuquerque Center
01:19 37.3728 -102.3856 67° East 473 544 37,000  Level Albuquerque Center
01:20 37.4203 -102.2358 68° East 478 550 37,000  Level Albuquerque Center
01:21 37.4778 -102.0603 68° East 483 556 37,000  Level Albuquerque Center
01:22 37.5278 -101.9119 67° East 482 555 37,000  Level Albuquerque Center
01:23 37.5856 -101.7375 67° East 483 556 37,000  Level Kansas City Center
01:24 37.6425 -101.5619 68° East 484 557 37,000  Level Kansas City Center
01:25 37.6917 -101.4117 67° East 484 557 37,000  Level Kansas City Center
01:26 37.7403 -101.2603 68° East 484 557 37,000  Level Kansas City Center
01:28 37.7892 -101.1100 68° East 481 554 37,000  Level Kansas City Center
01:29 37.8461 -100.9314 68° East 482 555 37,000  Level Kansas City Center
01:30 37.8961 -100.7769 68° East 488 562 37,000  Level Kansas City Center
01:31 37.9444 -100.6233 68° East 489 563 37,000  Level Kansas City Center
01:32 37.9919 -100.4706 68° East 486 559 37,000  Level Kansas City Center
01:33 38.0478 -100.2906 68° East 488 562 37,000  Level Kansas City Center
01:34 38.0942 -100.1369 69° East 487 560 37,000  Level Kansas City Center
01:35 38.1419 -99.9839 68° East 487 560 37,000  Level Kansas City Center
01:36 38.1978 -99.8050 68° East 487 560 37,000  Level Kansas City Center
01:37 38.2444 -99.6514 69° East 486 559 37,000  Level Kansas City Center
01:38 38.2894 -99.5028 69° East 487 560 37,000  Level Kansas City Center
01:39 38.3383 -99.3411 69° East 489 563 37,000  Level Kansas City Center
01:40 38.3869 -99.1800 69° East 487 560 37,000  Level Kansas City Center
01:41 38.4367 -99.0183 69° East 488 562 37,000  Level Kansas City Center
01:42 38.4850 -98.8556 69° East 489 563 37,000  Level Kansas City Center
01:43 38.5353 -98.6917 69° East 491 565 37,000  Level Kansas City Center
01:44 38.5825 -98.5286 70° East 488 562 37,000  Level Kansas City Center
01:45 38.6306 -98.3653 69° East 488 562 37,000  Level Kansas City Center
01:46 38.6775 -98.2000 70° East 491 565 37,000  Level Kansas City Center
01:47 38.7261 -98.0361 69° East 490 564 37,000  Level Kansas City Center
01:48 38.7733 -97.8717 70° East 490 564 37,000  Level Kansas City Center
01:49 38.8239 -97.6989 69° East 491 565 37,000  Level Kansas City Center
01:50 38.8681 -97.5403 70° East 493 567 37,000  Level Kansas City Center
01:51 38.9139 -97.3750 70° East 492 566 37,000  Level Kansas City Center
01:52 38.9606 -97.2086 70° East 494 568 37,000  Level Kansas City Center
01:53 39.0072 -97.0389 70° East 489 563 37,000  Level Kansas City Center
01:54 39.0592 -96.8553 70° East 489 563 37,000  Level Kansas City Center
01:55 39.1017 -96.6964 71° East 489 563 37,000  Level Kansas City Center
01:56 39.1458 -96.5372 70° East 491 565 37,000  Level Kansas City Center
01:57 39.1869 -96.3789 71° East 487 560 37,000  Level Kansas City Center
01:58 39.2381 -96.1903 71° East 496 571 37,000  Level Kansas City Center
01:59 39.2814 -96.0275 71° East 500 575 37,000  Level Kansas City Center
02:00 39.3247 -95.8633 71° East 502 578 37,000  Level Kansas City Center
02:01 39.3694 -95.6961 71° East 511 588 37,000  Level Kansas City Center
02:02 39.4208 -95.4997 71° East 512 589 37,000  Level Kansas City Center
02:03 39.4639 -95.3294 72° East 511 588 37,000  Level Kansas City Center
02:04 39.5097 -95.1536 71° East 513 590 37,000  Level Kansas City Center
02:05 39.5517 -94.9906 72° East 514 592 37,000  Level Kansas City Center
02:06 39.6028 -94.7914 72° East 517 595 37,000  Level Kansas City Center
02:07 39.6461 -94.6214 72° East 518 596 37,000  Level Kansas City Center
02:08 39.6883 -94.4511 72° East 518 596 37,000  Level Kansas City Center
02:09 39.7317 -94.2806 72° East 519 597 37,000  Level Kansas City Center
02:10 39.7806 -94.0817 72° East 517 595 37,000  Level Kansas City Center
02:11 39.8219 -93.9097 73° East 521 600 37,000  Level Kansas City Center
02:12 39.8636 -93.7325 73° East 515 593 37,000  Level Kansas City Center
02:13 39.9081 -93.5569 72° East 515 593 37,000  Level Kansas City Center
02:14 39.9500 -93.3781 73° East 519 597 37,000  Level Kansas City Center
02:15 39.9919 -93.2003 73° East 519 597 37,000  Level Kansas City Center
02:16 40.0347 -93.0219 73° East 522 601 37,000  Level Kansas City Center
02:17 40.0808 -92.8211 73° East 526 605 37,000  Level Kansas City Center
02:18 40.1197 -92.6469 74° East 522 601 37,000  Level Kansas City Center
02:19 40.1761 -92.4772 66° East 529 609 37,000  Level Kansas City Center
02:20 40.2447 -92.2883 65° Northeast 528 608 37,000  Level Kansas City Center
02:21 40.3064 -92.1136 65° Northeast 533 613 37,000  Level Kansas City Center
02:22 40.3681 -91.9403 65° Northeast 533 613 37,000  Level Kansas City Center
02:23 40.4303 -91.7639 65° Northeast 537 618 37,000  Level Kansas City Center
02:24 40.4908 -91.5900 65° Northeast 530 610 37,000  Level Chicago Center
02:25 40.5494 -91.4136 66° East 531 611 37,000  Level Chicago Center
02:26 40.6006 -91.2658 65° Northeast 530 610 37,000  Level Chicago Center
02:27 40.6619 -91.0903 65° Northeast 527 606 37,000  Level Chicago Center
02:28 40.7206 -90.9150 66° East 523 602 37,000  Level Chicago Center
02:29 40.7806 -90.7406 66° East 521 600 37,000 -60 Level Chicago Center
02:30 40.8381 -90.5653 67° East 519 597 36,900 -600 Descending Chicago Center
02:31 40.8972 -90.3897 66° East 520 598 35,900 -1,260 Descending Chicago Center
02:32 40.9550 -90.2114 67° East 519 597 34,400 -2,340 Descending Chicago Center
02:33 41.0158 -90.0311 66° East 527 606 31,300 -3,060 Descending Chicago Center
02:34 41.0761 -89.8481 66° East 533 613 28,300 -2,760 Descending Chicago Center
02:35 41.1339 -89.6692 67° East 524 603 25,800 -2,520 Descending Chicago Center
02:36 41.1964 -89.4978 64° Northeast 514 592 23,300 -2,520 Descending Chicago Center
02:37 41.2642 -89.3344 61° Northeast 504 580 20,800 -2,760 Descending Chicago Center
02:38 41.3356 -89.1503 63° Northeast 495 570 17,800 -2,400 Descending Chicago Center
02:39 41.3986 -88.9939 62° Northeast 482 555 16,000 -2,100 Descending Chicago Center
02:40 41.4564 -88.8467 62° Northeast 452 520 13,600 -2,280 Descending Chicago Center
02:41 41.5119 -88.7125 61° Northeast 418 481 11,500 -1,320 Descending Chicago Center
02:42 41.5661 -88.5825 61° Northeast 402 463 11,000 -300 Descending Chicago Center
02:43 41.6197 -88.4517 61° Northeast 399 459 11,000  Level Chicago Center
02:44 41.6736 -88.3206 61° Northeast 400 460 11,000 -540 Level Chicago Center
02:45 41.7200 -88.2064 61° Northeast 349 402 10,000 -1,380 Descending Chicago Center
02:46 41.7669 -88.0919 61° Northeast 346 398 8,300 -1,380 Descending Chicago Center
02:47 41.8122 -87.9794 62° Northeast 344 396 7,300 -1,080 Descending Chicago Center
02:48 41.8539 -87.8772 61° Northeast 322 371 6,200 -1,020 Descending Chicago Center
02:49 41.8839 -87.7731 69° East 307 353 5,300 -1,020 Descending Chicago Center
02:50 41.8847 -87.6744 89° East 280 322 4,200 -660 Descending Chicago Center
02:51 41.9008 -87.5886 76° East 267 307 4,000 -120 Descending Chicago Center
02:52 41.9581 -87.5839 North 230 265 4,000  Level Chicago Center
02:53 41.9697 -87.6497 283° West 202 232 4,000 -420 Level Chicago Center
02:54 41.9692 -87.7147 269° West 186 214 3,200 -840 Descending Chicago Center